sensor_id;sensor_type;location;lat;lon;timestamp;P1;durP1;ratioP1;P2;durP2;ratioP2
77495;SDS011;66600;48.378;9.948;2023-07-20T00:02:20;2.63;;;1.33;;
77495;SDS011;66600;48.378;9.948;2023-07-20T00:04:46;3.38;;;1.30;;
77495;SDS011;66600;48.378;9.948;2023-07-20T00:07:11;2.60;;;1.27;;
77495;SDS011;66600;48.378;9.948;2023-07-20T00:09:36;4.57;;;1.40;;
77495;SDS011;66600;48.378;9.948;2023-07-20T00:12:02;2.20;;;1.30;;
77495;SDS011;66600;48.378;9.948;2023-07-20T00:14:27;3.50;;;1.50;;
77495;SDS011;66600;48.378;9.948;2023-07-20T00:16:54;3.40;;;1.40;;
77495;SDS011;66600;48.378;9.948;2023-07-20T00:19:30;5.43;;;1.65;;
77495;SDS011;66600;48.378;9.948;2023-07-20T00:21:57;4.00;;;1.50;;
77495;SDS011;66600;48.378;9.948;2023-07-20T00:24:23;5.30;;;1.70;;
77495;SDS011;66600;48.378;9.948;2023-07-20T00:26:48;2.90;;;1.38;;
77495;SDS011;66600;48.378;9.948;2023-07-20T00:29:14;4.72;;;1.30;;
77495;SDS011;66600;48.378;9.948;2023-07-20T00:31:39;5.65;;;1.80;;
77495;SDS011;66600;48.378;9.948;2023-07-20T00:34:04;4.43;;;1.50;;
77495;SDS011;66600;48.378;9.948;2023-07-20T00:36:30;4.45;;;1.45;;
77495;SDS011;66600;48.378;9.948;2023-07-20T00:38:55;7.40;;;1.80;;
77495;SDS011;66600;48.378;9.948;2023-07-20T00:41:20;4.15;;;1.52;;
77495;SDS011;66600;48.378;9.948;2023-07-20T00:43:46;5.43;;;1.80;;
77495;SDS011;66600;48.378;9.948;2023-07-20T00:46:11;4.90;;;1.42;;
77495;SDS011;66600;48.378;9.948;2023-07-20T00:48:37;4.78;;;1.60;;
77495;SDS011;66600;48.378;9.948;2023-07-20T00:51:02;6.03;;;1.70;;
77495;SDS011;66600;48.378;9.948;2023-07-20T00:53:28;4.55;;;1.85;;
77495;SDS011;66600;48.378;9.948;2023-07-20T00:55:53;5.43;;;1.73;;
77495;SDS011;66600;48.378;9.948;2023-07-20T00:58:19;4.57;;;1.77;;
77495;SDS011;66600;48.378;9.948;2023-07-20T01:00:45;4.47;;;1.80;;
77495;SDS011;66600;48.378;9.948;2023-07-20T01:03:11;3.35;;;1.75;;
77495;SDS011;66600;48.378;9.948;2023-07-20T01:05:48;4.07;;;1.90;;
77495;SDS011;66600;48.378;9.948;2023-07-20T01:09:24;3.75;;;1.98;;
77495;SDS011;66600;48.378;9.948;2023-07-20T01:14:08;6.70;;;2.10;;
77495;SDS011;66600;48.378;9.948;2023-07-20T01:16:33;2.40;;;1.77;;
77495;SDS011;66600;48.378;9.948;2023-07-20T01:18:59;3.60;;;1.80;;
77495;SDS011;66600;48.378;9.948;2023-07-20T01:21:26;3.58;;;1.65;;
77495;SDS011;66600;48.378;9.948;2023-07-20T01:32:36;6.53;;;2.00;;
77495;SDS011;66600;48.378;9.948;2023-07-20T01:35:03;5.10;;;1.95;;
77495;SDS011;66600;48.378;9.948;2023-07-20T01:37:30;6.57;;;2.00;;
77495;SDS011;66600;48.378;9.948;2023-07-20T01:39:58;5.53;;;2.03;;
77495;SDS011;66600;48.378;9.948;2023-07-20T01:42:25;5.38;;;2.20;;
77495;SDS011;66600;48.378;9.948;2023-07-20T01:44:51;5.95;;;2.03;;
77495;SDS011;66600;48.378;9.948;2023-07-20T01:47:19;4.30;;;2.00;;
77495;SDS011;66600;48.378;9.948;2023-07-20T01:49:45;5.18;;;2.05;;
77495;SDS011;66600;48.378;9.948;2023-07-20T01:52:10;5.32;;;1.80;;
77495;SDS011;66600;48.378;9.948;2023-07-20T01:54:35;8.43;;;1.92;;
77495;SDS011;66600;48.378;9.948;2023-07-20T01:57:01;4.90;;;1.92;;
77495;SDS011;66600;48.378;9.948;2023-07-20T01:59:26;3.15;;;2.10;;
77495;SDS011;66600;48.378;9.948;2023-07-20T02:01:52;4.97;;;2.17;;
77495;SDS011;66600;48.378;9.948;2023-07-20T02:04:17;3.92;;;2.15;;
77495;SDS011;66600;48.378;9.948;2023-07-20T02:06:42;4.47;;;2.03;;
77495;SDS011;66600;48.378;9.948;2023-07-20T02:09:08;4.05;;;2.20;;
77495;SDS011;66600;48.378;9.948;2023-07-20T02:11:33;4.70;;;2.30;;
77495;SDS011;66600;48.378;9.948;2023-07-20T02:13:58;3.92;;;2.28;;
77495;SDS011;66600;48.378;9.948;2023-07-20T02:16:23;5.20;;;2.20;;
77495;SDS011;66600;48.378;9.948;2023-07-20T02:18:49;3.75;;;2.10;;
77495;SDS011;66600;48.378;9.948;2023-07-20T02:21:14;5.47;;;2.53;;
77495;SDS011;66600;48.378;9.948;2023-07-20T02:23:39;3.85;;;2.10;;
77495;SDS011;66600;48.378;9.948;2023-07-20T02:26:05;5.40;;;2.20;;
77495;SDS011;66600;48.378;9.948;2023-07-20T02:28:30;4.25;;;2.22;;
77495;SDS011;66600;48.378;9.948;2023-07-20T02:30:55;3.92;;;2.22;;
77495;SDS011;66600;48.378;9.948;2023-07-20T02:33:20;6.25;;;2.50;;
77495;SDS011;66600;48.378;9.948;2023-07-20T02:35:46;3.35;;;2.10;;
77495;SDS011;66600;48.378;9.948;2023-07-20T02:38:12;5.30;;;2.08;;
77495;SDS011;66600;48.378;9.948;2023-07-20T02:40:37;3.55;;;2.10;;
77495;SDS011;66600;48.378;9.948;2023-07-20T02:43:02;4.80;;;2.30;;
77495;SDS011;66600;48.378;9.948;2023-07-20T02:45:27;5.18;;;2.15;;
77495;SDS011;66600;48.378;9.948;2023-07-20T02:47:53;4.22;;;2.35;;
77495;SDS011;66600;48.378;9.948;2023-07-20T02:50:18;4.97;;;2.40;;
77495;SDS011;66600;48.378;9.948;2023-07-20T02:52:43;4.80;;;2.38;;
77495;SDS011;66600;48.378;9.948;2023-07-20T02:55:09;7.00;;;2.97;;
77495;SDS011;66600;48.378;9.948;2023-07-20T02:57:34;6.07;;;2.22;;
77495;SDS011;66600;48.378;9.948;2023-07-20T03:00:00;3.88;;;2.15;;
77495;SDS011;66600;48.378;9.948;2023-07-20T03:02:26;4.93;;;2.20;;
77495;SDS011;66600;48.378;9.948;2023-07-20T03:04:51;4.80;;;2.20;;
77495;SDS011;66600;48.378;9.948;2023-07-20T03:07:16;5.28;;;2.40;;
77495;SDS011;66600;48.378;9.948;2023-07-20T03:09:41;6.90;;;2.42;;
77495;SDS011;66600;48.378;9.948;2023-07-20T03:12:08;2.95;;;1.85;;
77495;SDS011;66600;48.378;9.948;2023-07-20T03:14:34;3.42;;;2.10;;
77495;SDS011;66600;48.378;9.948;2023-07-20T03:16:59;5.47;;;2.13;;
77495;SDS011;66600;48.378;9.948;2023-07-20T03:19:24;3.88;;;2.30;;
77495;SDS011;66600;48.378;9.948;2023-07-20T03:21:50;4.43;;;2.45;;
77495;SDS011;66600;48.378;9.948;2023-07-20T03:24:15;5.05;;;2.22;;
77495;SDS011;66600;48.378;9.948;2023-07-20T03:26:40;6.22;;;2.60;;
77495;SDS011;66600;48.378;9.948;2023-07-20T03:29:06;3.78;;;2.25;;
77495;SDS011;66600;48.378;9.948;2023-07-20T03:31:31;4.00;;;2.30;;
77495;SDS011;66600;48.378;9.948;2023-07-20T03:33:57;4.35;;;2.28;;
77495;SDS011;66600;48.378;9.948;2023-07-20T03:36:22;4.65;;;2.40;;
77495;SDS011;66600;48.378;9.948;2023-07-20T03:38:47;4.57;;;2.25;;
77495;SDS011;66600;48.378;9.948;2023-07-20T03:41:13;4.15;;;2.17;;
77495;SDS011;66600;48.378;9.948;2023-07-20T03:43:40;6.90;;;2.30;;
77495;SDS011;66600;48.378;9.948;2023-07-20T03:46:06;8.23;;;2.33;;
77495;SDS011;66600;48.378;9.948;2023-07-20T03:48:31;3.90;;;2.33;;
77495;SDS011;66600;48.378;9.948;2023-07-20T03:50:56;5.78;;;2.45;;
77495;SDS011;66600;48.378;9.948;2023-07-20T03:53:22;6.65;;;2.50;;
77495;SDS011;66600;48.378;9.948;2023-07-20T03:55:47;4.10;;;2.50;;
77495;SDS011;66600;48.378;9.948;2023-07-20T03:58:14;4.35;;;2.50;;
77495;SDS011;66600;48.378;9.948;2023-07-20T04:00:40;4.38;;;2.58;;
77495;SDS011;66600;48.378;9.948;2023-07-20T04:03:08;3.40;;;2.45;;
77495;SDS011;66600;48.378;9.948;2023-07-20T04:05:33;5.75;;;2.72;;
77495;SDS011;66600;48.378;9.948;2023-07-20T04:07:58;5.20;;;2.40;;
77495;SDS011;66600;48.378;9.948;2023-07-20T04:10:23;4.13;;;2.25;;
77495;SDS011;66600;48.378;9.948;2023-07-20T04:12:49;4.22;;;2.65;;
77495;SDS011;66600;48.378;9.948;2023-07-20T04:15:14;4.95;;;2.53;;
77495;SDS011;66600;48.378;9.948;2023-07-20T04:17:40;5.78;;;2.38;;
77495;SDS011;66600;48.378;9.948;2023-07-20T04:20:06;5.50;;;2.65;;
77495;SDS011;66600;48.378;9.948;2023-07-20T04:22:32;5.10;;;2.30;;
77495;SDS011;66600;48.378;9.948;2023-07-20T04:24:57;6.13;;;2.90;;
77495;SDS011;66600;48.378;9.948;2023-07-20T04:27:23;3.63;;;2.20;;
77495;SDS011;66600;48.378;9.948;2023-07-20T04:29:48;5.10;;;2.70;;
77495;SDS011;66600;48.378;9.948;2023-07-20T04:32:13;5.80;;;2.60;;
77495;SDS011;66600;48.378;9.948;2023-07-20T04:34:38;4.70;;;2.72;;
77495;SDS011;66600;48.378;9.948;2023-07-20T04:37:04;6.18;;;2.88;;
77495;SDS011;66600;48.378;9.948;2023-07-20T04:39:30;6.53;;;2.88;;
77495;SDS011;66600;48.378;9.948;2023-07-20T04:41:55;4.20;;;2.30;;
77495;SDS011;66600;48.378;9.948;2023-07-20T04:44:21;5.47;;;2.10;;
77495;SDS011;66600;48.378;9.948;2023-07-20T04:46:46;4.65;;;2.53;;
77495;SDS011;66600;48.378;9.948;2023-07-20T04:49:11;5.22;;;2.47;;
77495;SDS011;66600;48.378;9.948;2023-07-20T04:51:37;6.00;;;2.70;;
77495;SDS011;66600;48.378;9.948;2023-07-20T04:54:03;4.47;;;2.35;;
77495;SDS011;66600;48.378;9.948;2023-07-20T04:56:29;4.13;;;2.25;;
77495;SDS011;66600;48.378;9.948;2023-07-20T04:58:54;6.25;;;2.40;;
77495;SDS011;66600;48.378;9.948;2023-07-20T05:01:19;5.28;;;2.20;;
77495;SDS011;66600;48.378;9.948;2023-07-20T05:03:45;4.32;;;2.15;;
77495;SDS011;66600;48.378;9.948;2023-07-20T05:06:10;4.75;;;2.00;;
77495;SDS011;66600;48.378;9.948;2023-07-20T05:08:35;7.10;;;2.55;;
77495;SDS011;66600;48.378;9.948;2023-07-20T05:11:01;6.63;;;2.20;;
77495;SDS011;66600;48.378;9.948;2023-07-20T05:13:26;4.25;;;2.03;;
77495;SDS011;66600;48.378;9.948;2023-07-20T05:15:52;5.03;;;2.22;;
77495;SDS011;66600;48.378;9.948;2023-07-20T05:18:18;5.63;;;2.08;;
77495;SDS011;66600;48.378;9.948;2023-07-20T05:20:47;4.43;;;2.10;;
77495;SDS011;66600;48.378;9.948;2023-07-20T05:23:13;3.83;;;1.90;;
77495;SDS011;66600;48.378;9.948;2023-07-20T05:25:39;3.20;;;2.20;;
77495;SDS011;66600;48.378;9.948;2023-07-20T05:28:04;3.95;;;2.40;;
77495;SDS011;66600;48.378;9.948;2023-07-20T05:30:29;4.05;;;1.90;;
77495;SDS011;66600;48.378;9.948;2023-07-20T05:32:55;5.13;;;2.00;;
77495;SDS011;66600;48.378;9.948;2023-07-20T05:35:20;3.78;;;2.38;;
77495;SDS011;66600;48.378;9.948;2023-07-20T05:37:46;3.22;;;2.15;;
77495;SDS011;66600;48.378;9.948;2023-07-20T05:40:12;4.93;;;2.15;;
77495;SDS011;66600;48.378;9.948;2023-07-20T05:42:38;4.30;;;2.10;;
77495;SDS011;66600;48.378;9.948;2023-07-20T05:45:04;4.40;;;2.28;;
77495;SDS011;66600;48.378;9.948;2023-07-20T05:47:30;7.95;;;2.40;;
77495;SDS011;66600;48.378;9.948;2023-07-20T05:49:55;6.05;;;2.88;;
77495;SDS011;66600;48.378;9.948;2023-07-20T05:52:20;3.90;;;2.10;;
77495;SDS011;66600;48.378;9.948;2023-07-20T05:54:46;6.30;;;2.67;;
77495;SDS011;66600;48.378;9.948;2023-07-20T05:57:11;5.20;;;2.40;;
77495;SDS011;66600;48.378;9.948;2023-07-20T05:59:36;5.10;;;2.25;;
77495;SDS011;66600;48.378;9.948;2023-07-20T06:02:03;3.95;;;2.40;;
77495;SDS011;66600;48.378;9.948;2023-07-20T06:04:29;7.72;;;2.22;;
77495;SDS011;66600;48.378;9.948;2023-07-20T06:06:54;8.20;;;2.38;;
77495;SDS011;66600;48.378;9.948;2023-07-20T06:09:19;4.30;;;2.28;;
77495;SDS011;66600;48.378;9.948;2023-07-20T06:11:44;2.92;;;1.92;;
77495;SDS011;66600;48.378;9.948;2023-07-20T06:14:10;4.55;;;2.50;;
77495;SDS011;66600;48.378;9.948;2023-07-20T06:16:35;4.88;;;2.20;;
77495;SDS011;66600;48.378;9.948;2023-07-20T06:19:01;5.88;;;2.42;;
77495;SDS011;66600;48.378;9.948;2023-07-20T06:21:26;4.53;;;2.10;;
77495;SDS011;66600;48.378;9.948;2023-07-20T06:23:51;5.13;;;2.58;;
77495;SDS011;66600;48.378;9.948;2023-07-20T06:26:17;3.67;;;2.40;;
77495;SDS011;66600;48.378;9.948;2023-07-20T06:28:42;6.82;;;3.03;;
77495;SDS011;66600;48.378;9.948;2023-07-20T06:31:07;9.85;;;2.00;;
77495;SDS011;66600;48.378;9.948;2023-07-20T06:33:33;5.20;;;2.30;;
77495;SDS011;66600;48.378;9.948;2023-07-20T06:35:59;6.00;;;2.08;;
77495;SDS011;66600;48.378;9.948;2023-07-20T06:38:25;4.55;;;2.38;;
77495;SDS011;66600;48.378;9.948;2023-07-20T06:40:50;6.75;;;2.55;;
77495;SDS011;66600;48.378;9.948;2023-07-20T06:43:16;4.78;;;2.35;;
77495;SDS011;66600;48.378;9.948;2023-07-20T06:45:41;5.80;;;2.13;;
77495;SDS011;66600;48.378;9.948;2023-07-20T06:48:07;2.97;;;2.05;;
77495;SDS011;66600;48.378;9.948;2023-07-20T06:50:33;4.20;;;2.15;;
77495;SDS011;66600;48.378;9.948;2023-07-20T06:52:58;4.25;;;2.38;;
77495;SDS011;66600;48.378;9.948;2023-07-20T06:55:24;3.72;;;2.30;;
77495;SDS011;66600;48.378;9.948;2023-07-20T06:57:50;4.22;;;2.17;;
77495;SDS011;66600;48.378;9.948;2023-07-20T07:00:16;4.85;;;2.20;;
77495;SDS011;66600;48.378;9.948;2023-07-20T07:02:41;3.15;;;1.85;;
77495;SDS011;66600;48.378;9.948;2023-07-20T07:05:07;3.95;;;2.05;;
77495;SDS011;66600;48.378;9.948;2023-07-20T07:07:32;3.65;;;1.80;;
77495;SDS011;66600;48.378;9.948;2023-07-20T07:09:58;3.85;;;2.20;;
77495;SDS011;66600;48.378;9.948;2023-07-20T07:12:25;4.55;;;2.20;;
77495;SDS011;66600;48.378;9.948;2023-07-20T07:14:50;4.05;;;2.42;;
77495;SDS011;66600;48.378;9.948;2023-07-20T07:17:15;5.47;;;2.20;;
77495;SDS011;66600;48.378;9.948;2023-07-20T07:19:41;6.97;;;2.50;;
77495;SDS011;66600;48.378;9.948;2023-07-20T07:22:07;6.70;;;2.28;;
77495;SDS011;66600;48.378;9.948;2023-07-20T07:24:32;3.28;;;2.33;;
77495;SDS011;66600;48.378;9.948;2023-07-20T07:27:01;4.93;;;2.00;;
77495;SDS011;66600;48.378;9.948;2023-07-20T07:29:26;4.22;;;2.03;;
77495;SDS011;66600;48.378;9.948;2023-07-20T07:31:51;8.88;;;2.20;;
77495;SDS011;66600;48.378;9.948;2023-07-20T07:34:17;5.70;;;2.30;;
77495;SDS011;66600;48.378;9.948;2023-07-20T07:36:42;4.82;;;2.03;;
77495;SDS011;66600;48.378;9.948;2023-07-20T07:39:08;5.95;;;2.38;;
77495;SDS011;66600;48.378;9.948;2023-07-20T07:43:01;4.75;;;2.05;;
77495;SDS011;66600;48.378;9.948;2023-07-20T07:45:27;5.18;;;2.10;;
77495;SDS011;66600;48.378;9.948;2023-07-20T07:47:52;3.83;;;2.00;;
77495;SDS011;66600;48.378;9.948;2023-07-20T07:50:18;4.35;;;2.17;;
77495;SDS011;66600;48.378;9.948;2023-07-20T07:52:43;4.97;;;2.50;;
77495;SDS011;66600;48.378;9.948;2023-07-20T07:55:08;4.03;;;2.08;;
77495;SDS011;66600;48.378;9.948;2023-07-20T07:57:34;4.80;;;2.38;;
77495;SDS011;66600;48.378;9.948;2023-07-20T07:59:59;5.07;;;2.10;;
77495;SDS011;66600;48.378;9.948;2023-07-20T08:02:24;6.38;;;2.42;;
77495;SDS011;66600;48.378;9.948;2023-07-20T08:04:50;3.63;;;1.92;;
77495;SDS011;66600;48.378;9.948;2023-07-20T08:07:17;4.50;;;1.90;;
77495;SDS011;66600;48.378;9.948;2023-07-20T08:09:42;4.38;;;2.22;;
77495;SDS011;66600;48.378;9.948;2023-07-20T08:12:08;5.30;;;2.17;;
77495;SDS011;66600;48.378;9.948;2023-07-20T08:14:33;4.47;;;2.03;;
77495;SDS011;66600;48.378;9.948;2023-07-20T08:16:59;4.32;;;2.10;;
77495;SDS011;66600;48.378;9.948;2023-07-20T08:19:24;5.63;;;1.98;;
77495;SDS011;66600;48.378;9.948;2023-07-20T08:21:49;3.55;;;1.85;;
77495;SDS011;66600;48.378;9.948;2023-07-20T08:24:15;3.30;;;2.10;;
77495;SDS011;66600;48.378;9.948;2023-07-20T08:26:59;3.50;;;1.95;;
77495;SDS011;66600;48.378;9.948;2023-07-20T08:29:24;4.40;;;2.10;;
77495;SDS011;66600;48.378;9.948;2023-07-20T08:31:50;4.30;;;1.90;;
77495;SDS011;66600;48.378;9.948;2023-07-20T08:34:15;3.28;;;2.08;;
77495;SDS011;66600;48.378;9.948;2023-07-20T08:36:41;3.00;;;1.80;;
77495;SDS011;66600;48.378;9.948;2023-07-20T08:39:06;5.22;;;1.95;;
77495;SDS011;66600;48.378;9.948;2023-07-20T08:41:33;3.92;;;2.20;;
77495;SDS011;66600;48.378;9.948;2023-07-20T08:44:00;2.63;;;1.75;;
77495;SDS011;66600;48.378;9.948;2023-07-20T08:46:26;3.60;;;2.20;;
77495;SDS011;66600;48.378;9.948;2023-07-20T08:48:53;5.72;;;2.55;;
77495;SDS011;66600;48.378;9.948;2023-07-20T08:51:20;4.10;;;2.35;;
77495;SDS011;66600;48.378;9.948;2023-07-20T08:53:46;3.25;;;2.08;;
77495;SDS011;66600;48.378;9.948;2023-07-20T08:56:12;3.28;;;2.00;;
77495;SDS011;66600;48.378;9.948;2023-07-20T08:58:41;4.15;;;2.30;;
77495;SDS011;66600;48.378;9.948;2023-07-20T09:01:09;5.40;;;1.95;;
77495;SDS011;66600;48.378;9.948;2023-07-20T09:03:36;3.72;;;1.92;;
77495;SDS011;66600;48.378;9.948;2023-07-20T09:06:04;5.80;;;1.95;;
77495;SDS011;66600;48.378;9.948;2023-07-20T09:08:30;3.22;;;2.03;;
77495;SDS011;66600;48.378;9.948;2023-07-20T09:10:56;2.92;;;1.85;;
77495;SDS011;66600;48.378;9.948;2023-07-20T09:13:21;3.60;;;1.90;;
77495;SDS011;66600;48.378;9.948;2023-07-20T09:15:47;3.70;;;1.80;;
77495;SDS011;66600;48.378;9.948;2023-07-20T09:18:27;2.97;;;1.50;;
77495;SDS011;66600;48.378;9.948;2023-07-20T09:21:03;4.00;;;1.80;;
77495;SDS011;66600;48.378;9.948;2023-07-20T09:23:37;3.40;;;1.83;;
77495;SDS011;66600;48.378;9.948;2023-07-20T09:26:09;3.17;;;1.70;;
77495;SDS011;66600;48.378;9.948;2023-07-20T09:28:57;2.42;;;1.70;;
77495;SDS011;66600;48.378;9.948;2023-07-20T09:31:22;7.00;;;1.48;;
77495;SDS011;66600;48.378;9.948;2023-07-20T09:33:48;4.43;;;1.52;;
77495;SDS011;66600;48.378;9.948;2023-07-20T09:36:14;2.42;;;1.80;;
77495;SDS011;66600;48.378;9.948;2023-07-20T09:38:41;2.97;;;1.60;;
77495;SDS011;66600;48.378;9.948;2023-07-20T09:41:07;4.55;;;1.70;;
77495;SDS011;66600;48.378;9.948;2023-07-20T09:43:36;2.97;;;1.83;;
77495;SDS011;66600;48.378;9.948;2023-07-20T09:46:01;3.00;;;1.50;;
77495;SDS011;66600;48.378;9.948;2023-07-20T09:48:27;2.30;;;1.63;;
77495;SDS011;66600;48.378;9.948;2023-07-20T09:50:53;2.47;;;1.52;;
77495;SDS011;66600;48.378;9.948;2023-07-20T09:53:19;3.75;;;1.70;;
77495;SDS011;66600;48.378;9.948;2023-07-20T09:55:45;2.65;;;1.48;;
77495;SDS011;66600;48.378;9.948;2023-07-20T09:58:12;2.13;;;1.50;;
77495;SDS011;66600;48.378;9.948;2023-07-20T10:00:39;2.58;;;1.58;;
77495;SDS011;66600;48.378;9.948;2023-07-20T10:03:06;2.53;;;1.77;;
77495;SDS011;66600;48.378;9.948;2023-07-20T10:05:35;3.00;;;1.60;;
77495;SDS011;66600;48.378;9.948;2023-07-20T10:08:04;2.20;;;1.65;;
77495;SDS011;66600;48.378;9.948;2023-07-20T10:10:33;2.50;;;1.43;;
77495;SDS011;66600;48.378;9.948;2023-07-20T10:12:58;3.13;;;1.50;;
77495;SDS011;66600;48.378;9.948;2023-07-20T10:17:59;2.97;;;1.70;;
77495;SDS011;66600;48.378;9.948;2023-07-20T10:20:39;2.67;;;1.60;;
77495;SDS011;66600;48.378;9.948;2023-07-20T10:23:08;3.58;;;1.70;;
77495;SDS011;66600;48.378;9.948;2023-07-20T10:25:35;2.75;;;1.40;;
77495;SDS011;66600;48.378;9.948;2023-07-20T10:28:05;3.60;;;1.70;;
77495;SDS011;66600;48.378;9.948;2023-07-20T10:30:31;2.28;;;1.50;;
77495;SDS011;66600;48.378;9.948;2023-07-20T10:32:59;3.00;;;1.55;;
77495;SDS011;66600;48.378;9.948;2023-07-20T10:35:28;2.05;;;1.50;;
77495;SDS011;66600;48.378;9.948;2023-07-20T10:37:54;4.82;;;1.85;;
77495;SDS011;66600;48.378;9.948;2023-07-20T10:40:34;2.58;;;1.60;;
77495;SDS011;66600;48.378;9.948;2023-07-20T10:43:04;3.67;;;1.90;;
77495;SDS011;66600;48.378;9.948;2023-07-20T10:45:41;4.57;;;2.35;;
77495;SDS011;66600;48.378;9.948;2023-07-20T10:48:44;3.17;;;1.73;;
77495;SDS011;66600;48.378;9.948;2023-07-20T10:51:20;3.63;;;1.67;;
77495;SDS011;66600;48.378;9.948;2023-07-20T10:53:47;2.67;;;1.73;;
77495;SDS011;66600;48.378;9.948;2023-07-20T10:56:22;3.28;;;1.80;;
77495;SDS011;66600;48.378;9.948;2023-07-20T10:58:50;2.03;;;1.60;;
77495;SDS011;66600;48.378;9.948;2023-07-20T11:01:22;3.60;;;1.80;;
77495;SDS011;66600;48.378;9.948;2023-07-20T11:03:57;2.92;;;1.67;;
77495;SDS011;66600;48.378;9.948;2023-07-20T11:08:56;3.17;;;1.88;;
77495;SDS011;66600;48.378;9.948;2023-07-20T11:11:28;2.80;;;1.70;;
77495;SDS011;66600;48.378;9.948;2023-07-20T11:13:21;3.80;;;1.90;;
77495;SDS011;66600;48.378;9.948;2023-07-20T11:13:57;2.70;;;1.75;;
77495;SDS011;66600;48.378;9.948;2023-07-20T11:14:27;3.22;;;1.90;;
77495;SDS011;66600;48.378;9.948;2023-07-20T11:14:58;3.53;;;1.80;;
77495;SDS011;66600;48.378;9.948;2023-07-20T11:15:44;3.17;;;1.75;;
77495;SDS011;66600;48.378;9.948;2023-07-20T11:17:30;3.42;;;1.52;;
77495;SDS011;66600;48.378;9.948;2023-07-20T11:18:10;3.22;;;1.70;;
77495;SDS011;66600;48.378;9.948;2023-07-20T11:18:41;5.40;;;1.80;;
77495;SDS011;66600;48.378;9.948;2023-07-20T11:19:23;3.10;;;1.60;;
77495;SDS011;66600;48.378;9.948;2023-07-20T11:19:55;2.58;;;1.70;;
77495;SDS011;66600;48.378;9.948;2023-07-20T11:20:26;8.38;;;2.00;;
77495;SDS011;66600;48.378;9.948;2023-07-20T11:20:57;2.97;;;1.80;;
77495;SDS011;66600;48.378;9.948;2023-07-20T11:21:28;4.03;;;1.85;;
77495;SDS011;66600;48.378;9.948;2023-07-20T11:21:59;3.53;;;1.80;;
77495;SDS011;66600;48.378;9.948;2023-07-20T11:22:32;3.45;;;1.50;;
77495;SDS011;66600;48.378;9.948;2023-07-20T11:23:03;3.70;;;1.67;;
77495;SDS011;66600;48.378;9.948;2023-07-20T11:23:34;4.50;;;1.70;;
77495;SDS011;66600;48.378;9.948;2023-07-20T11:24:05;7.35;;;1.95;;
77495;SDS011;66600;48.378;9.948;2023-07-20T11:24:39;3.42;;;1.95;;
77495;SDS011;66600;48.378;9.948;2023-07-20T11:25:10;3.10;;;1.88;;
77495;SDS011;66600;48.378;9.948;2023-07-20T11:25:40;4.03;;;1.95;;
77495;SDS011;66600;48.378;9.948;2023-07-20T11:26:11;4.65;;;1.80;;
77495;SDS011;66600;48.378;9.948;2023-07-20T11:26:43;3.30;;;1.90;;
77495;SDS011;66600;48.378;9.948;2023-07-20T11:27:17;3.00;;;1.80;;
77495;SDS011;66600;48.378;9.948;2023-07-20T11:27:52;4.65;;;1.83;;
77495;SDS011;66600;48.378;9.948;2023-07-20T11:28:22;5.95;;;1.80;;
77495;SDS011;66600;48.378;9.948;2023-07-20T11:28:53;3.20;;;1.77;;
77495;SDS011;66600;48.378;9.948;2023-07-20T11:29:23;3.80;;;1.83;;
77495;SDS011;66600;48.378;9.948;2023-07-20T11:29:56;3.42;;;1.70;;
77495;SDS011;66600;48.378;9.948;2023-07-20T11:30:26;3.28;;;1.73;;
77495;SDS011;66600;48.378;9.948;2023-07-20T11:30:56;3.33;;;1.80;;
77495;SDS011;66600;48.378;9.948;2023-07-20T11:31:27;2.90;;;1.73;;
77495;SDS011;66600;48.378;9.948;2023-07-20T11:31:57;3.75;;;1.92;;
77495;SDS011;66600;48.378;9.948;2023-07-20T11:32:30;3.78;;;2.03;;
77495;SDS011;66600;48.378;9.948;2023-07-20T11:33:00;3.20;;;1.77;;
77495;SDS011;66600;48.378;9.948;2023-07-20T11:33:31;2.50;;;1.67;;
77495;SDS011;66600;48.378;9.948;2023-07-20T11:34:01;3.63;;;1.98;;
77495;SDS011;66600;48.378;9.948;2023-07-20T11:34:32;5.07;;;2.22;;
77495;SDS011;66600;48.378;9.948;2023-07-20T11:35:04;3.85;;;1.85;;
77495;SDS011;66600;48.378;9.948;2023-07-20T11:35:35;3.67;;;1.90;;
77495;SDS011;66600;48.378;9.948;2023-07-20T11:36:15;3.35;;;2.00;;
77495;SDS011;66600;48.378;9.948;2023-07-20T11:36:49;5.95;;;2.00;;
77495;SDS011;66600;48.378;9.948;2023-07-20T11:37:20;3.90;;;1.80;;
77495;SDS011;66600;48.378;9.948;2023-07-20T11:37:50;3.97;;;1.80;;
77495;SDS011;66600;48.378;9.948;2023-07-20T11:38:21;3.08;;;1.88;;
77495;SDS011;66600;48.378;9.948;2023-07-20T11:38:51;4.50;;;1.70;;
77495;SDS011;66600;48.378;9.948;2023-07-20T11:39:23;3.58;;;1.90;;
77495;SDS011;66600;48.378;9.948;2023-07-20T11:39:56;3.25;;;1.80;;
77495;SDS011;66600;48.378;9.948;2023-07-20T11:40:27;5.60;;;1.77;;
77495;SDS011;66600;48.378;9.948;2023-07-20T11:40:57;4.60;;;1.75;;
77495;SDS011;66600;48.378;9.948;2023-07-20T11:41:28;3.58;;;1.90;;
77495;SDS011;66600;48.378;9.948;2023-07-20T11:41:58;4.05;;;1.80;;
77495;SDS011;66600;48.378;9.948;2023-07-20T11:42:29;2.22;;;1.67;;
77495;SDS011;66600;48.378;9.948;2023-07-20T11:42:59;2.55;;;1.52;;
77495;SDS011;66600;48.378;9.948;2023-07-20T11:43:30;3.95;;;1.90;;
77495;SDS011;66600;48.378;9.948;2023-07-20T11:44:00;3.75;;;1.60;;
77495;SDS011;66600;48.378;9.948;2023-07-20T11:44:32;5.55;;;1.70;;
77495;SDS011;66600;48.378;9.948;2023-07-20T11:45:03;2.75;;;1.98;;
77495;SDS011;66600;48.378;9.948;2023-07-20T11:45:35;2.70;;;1.60;;
77495;SDS011;66600;48.378;9.948;2023-07-20T11:46:05;3.92;;;1.80;;
77495;SDS011;66600;48.378;9.948;2023-07-20T11:46:35;2.85;;;1.88;;
77495;SDS011;66600;48.378;9.948;2023-07-20T11:47:10;5.18;;;1.90;;
77495;SDS011;66600;48.378;9.948;2023-07-20T11:47:41;2.92;;;1.90;;
77495;SDS011;66600;48.378;9.948;2023-07-20T11:48:15;3.35;;;1.60;;
77495;SDS011;66600;48.378;9.948;2023-07-20T11:48:46;3.35;;;1.98;;
77495;SDS011;66600;48.378;9.948;2023-07-20T11:49:16;3.58;;;2.05;;
77495;SDS011;66600;48.378;9.948;2023-07-20T11:49:47;2.65;;;1.80;;
77495;SDS011;66600;48.378;9.948;2023-07-20T11:50:21;3.90;;;1.77;;
77495;SDS011;66600;48.378;9.948;2023-07-20T11:50:51;3.42;;;1.80;;
77495;SDS011;66600;48.378;9.948;2023-07-20T11:51:22;3.53;;;1.77;;
77495;SDS011;66600;48.378;9.948;2023-07-20T11:51:53;2.75;;;1.83;;
77495;SDS011;66600;48.378;9.948;2023-07-20T11:52:23;3.55;;;1.60;;
77495;SDS011;66600;48.378;9.948;2023-07-20T11:52:54;3.00;;;1.80;;
77495;SDS011;66600;48.378;9.948;2023-07-20T11:53:24;2.65;;;1.70;;
77495;SDS011;66600;48.378;9.948;2023-07-20T11:53:55;2.40;;;1.65;;
77495;SDS011;66600;48.378;9.948;2023-07-20T11:54:26;4.95;;;1.70;;
77495;SDS011;66600;48.378;9.948;2023-07-20T11:54:57;2.95;;;1.70;;
77495;SDS011;66600;48.378;9.948;2023-07-20T11:55:28;3.85;;;1.90;;
77495;SDS011;66600;48.378;9.948;2023-07-20T11:55:59;3.38;;;1.70;;
77495;SDS011;66600;48.378;9.948;2023-07-20T11:56:29;5.00;;;2.10;;
77495;SDS011;66600;48.378;9.948;2023-07-20T11:57:04;3.38;;;1.77;;
77495;SDS011;66600;48.378;9.948;2023-07-20T11:57:37;3.47;;;1.90;;
77495;SDS011;66600;48.378;9.948;2023-07-20T11:58:09;3.55;;;1.85;;
77495;SDS011;66600;48.378;9.948;2023-07-20T11:58:45;3.20;;;1.73;;
77495;SDS011;66600;48.378;9.948;2023-07-20T11:59:18;3.40;;;1.60;;
77495;SDS011;66600;48.378;9.948;2023-07-20T12:00:32;2.72;;;1.70;;
77495;SDS011;66600;48.378;9.948;2023-07-20T12:01:03;2.58;;;1.67;;
77495;SDS011;66600;48.378;9.948;2023-07-20T12:01:34;4.25;;;1.80;;
77495;SDS011;66600;48.378;9.948;2023-07-20T12:02:05;3.47;;;1.90;;
77495;SDS011;66600;48.378;9.948;2023-07-20T12:02:36;3.15;;;1.63;;
77495;SDS011;66600;48.378;9.948;2023-07-20T12:03:09;2.75;;;1.50;;
77495;SDS011;66600;48.378;9.948;2023-07-20T12:03:41;2.65;;;1.75;;
77495;SDS011;66600;48.378;9.948;2023-07-20T12:04:13;3.17;;;1.73;;
77495;SDS011;66600;48.378;9.948;2023-07-20T12:04:44;3.38;;;1.98;;
77495;SDS011;66600;48.378;9.948;2023-07-20T12:05:14;2.15;;;1.50;;